Time;durP1;ratioP1;P1;durP2;ratioP2;P2;SDS_P1;SDS_P2;PMS_P1;PMS_P2;Temp;Humidity;BMP_temperature;BMP_pressure;BME280_temperature;BME280_humidity;BME280_pressure;Samples;Min_cycle;Max_cycle;Signal;HPM_P1;HPM_P2
2022/08/23 00:01:58;;;;;;;2.97;2.22;;;24.00;57.90;;;;;;10492757;28;20033;-49
2022/08/23 00:07:00;;;;;;;3.28;2.40;;;23.90;57.90;;;;;;10492931;28;20478;-50
2022/08/23 00:12:21;;;;;;;4.18;2.92;;;24.00;58.00;;;;;;10473978;28;20411;-51
2022/08/23 00:17:22;;;;;;;3.03;2.22;;;24.00;57.90;;;;;;10491542;28;20178;-50
2022/08/23 00:22:23;;;;;;;4.40;2.60;;;24.00;58.00;;;;;;10491488;28;20032;-49
2022/08/23 00:27:24;;;;;;;3.20;2.25;;;23.90;57.90;;;;;;10498116;28;20021;-52
2022/08/23 00:32:33;;;;;;;4.80;3.05;;;23.90;57.90;;;;;;10528712;28;20036;-49
2022/08/23 00:37:34;;;;;;;3.47;2.40;;;23.90;57.90;;;;;;10473919;28;20114;-48
2022/08/23 00:48:30;;;;;;;3.38;2.72;;;23.90;57.80;;;;;;10478370;28;20044;-49
2022/08/23 00:53:36;;;;;;;4.10;2.38;;;23.90;57.90;;;;;;10472349;28;20025;-52
2022/08/23 00:58:38;;;;;;;4.50;2.67;;;23.90;57.90;;;;;;10489711;28;20032;-50
2022/08/23 01:03:42;;;;;;;4.97;2.47;;;23.90;57.80;;;;;;10455034;28;20029;-50
2022/08/23 01:08:50;;;;;;;3.10;2.30;;;23.90;57.80;;;;;;10471767;28;20035;-52
2022/08/23 01:13:59;;;;;;;3.00;2.65;;;23.90;57.90;;;;;;10471576;28;20028;-50
2022/08/23 01:19:05;;;;;;;3.45;2.80;;;23.90;57.90;;;;;;10471773;28;20032;-51
2022/08/23 01:24:07;;;;;;;3.25;2.47;;;23.90;57.80;;;;;;10471577;28;20025;-51
2022/08/23 01:29:07;;;;;;;3.58;2.22;;;23.90;57.80;;;;;;10510401;28;20020;-49
2022/08/23 01:34:12;;;;;;;4.32;3.08;;;23.90;57.90;;;;;;10511933;28;20032;-51
2022/08/23 01:39:13;;;;;;;3.33;2.95;;;23.80;57.80;;;;;;10488168;28;20055;-52
2022/08/23 01:44:14;;;;;;;3.53;2.60;;;23.80;57.80;;;;;;10488105;28;20107;-50
2022/08/23 01:49:15;;;;;;;4.00;2.40;;;23.80;58.30;;;;;;10488358;28;20056;-49
2022/08/23 01:54:16;;;;;;;3.05;2.33;;;23.80;57.80;;;;;;10488212;28;20039;-51
2022/08/23 01:59:17;;;;;;;4.55;2.33;;;23.80;57.80;;;;;;10487950;28;20363;-52
2022/08/23 02:04:18;;;;;;;3.03;2.72;;;23.80;57.80;;;;;;10487880;28;20056;-50
2022/08/23 02:09:18;;;;;;;4.35;3.05;;;23.80;57.80;;;;;;10470173;28;20230;-51
2022/08/23 02:14:20;;;;;;;4.72;2.60;;;23.80;57.80;;;;;;10492134;28;20043;-49
2022/08/23 02:19:21;;;;;;;3.42;2.33;;;23.80;57.80;;;;;;10496095;28;20032;-51
2022/08/23 02:24:24;;;;;;;4.82;3.08;;;23.80;57.80;;;;;;10478104;28;20021;-52
2022/08/23 02:29:28;;;;;;;4.03;2.92;;;23.80;57.80;;;;;;10501851;28;20463;-48
2022/08/23 02:34:30;;;;;;;4.53;3.33;;;23.80;57.80;;;;;;10516335;28;20077;-49
2022/08/23 02:39:31;;;;;;;3.03;2.45;;;23.80;57.80;;;;;;10477004;28;20060;-50
2022/08/23 02:44:33;;;;;;;2.80;2.47;;;23.80;57.80;;;;;;10477203;28;20064;-50
2022/08/23 02:49:35;;;;;;;3.05;2.55;;;23.80;57.80;;;;;;10476959;28;20024;-51
2022/08/23 02:54:36;;;;;;;4.10;3.10;;;23.80;57.80;;;;;;10495530;28;20024;-52
2022/08/23 02:59:37;;;;;;;3.35;2.70;;;23.80;57.80;;;;;;10494392;28;20039;-53
2022/08/23 03:04:38;;;;;;;3.80;2.85;;;23.80;57.80;;;;;;10493951;28;20435;-52
2022/08/23 03:09:39;;;;;;;2.60;2.28;;;23.70;57.70;;;;;;10476084;28;20384;-50
2022/08/23 03:14:40;;;;;;;4.63;3.00;;;23.70;57.80;;;;;;10493699;28;20031;-50
2022/08/23 03:19:40;;;;;;;3.80;3.05;;;23.80;57.80;;;;;;10494017;28;20476;-50
2022/08/23 03:24:41;;;;;;;3.40;3.10;;;23.70;57.70;;;;;;10492672;28;20515;-51
2022/08/23 03:29:42;;;;;;;3.67;2.80;;;23.80;57.80;;;;;;10520276;28;20032;-50
2022/08/23 03:34:43;;;;;;;3.30;3.00;;;23.70;57.70;;;;;;10512792;28;20082;-49
2022/08/23 03:39:44;;;;;;;5.85;3.13;;;23.70;57.70;;;;;;10493076;28;20079;-50
2022/08/23 03:44:45;;;;;;;4.47;3.08;;;23.70;57.80;;;;;;10493185;28;20032;-48
2022/08/23 03:49:46;;;;;;;4.00;3.15;;;23.70;57.70;;;;;;10475306;28;20546;-48
2022/08/23 03:54:47;;;;;;;3.05;2.72;;;23.70;57.80;;;;;;10492702;28;20041;-51
2022/08/23 03:59:47;;;;;;;3.47;3.10;;;23.70;57.80;;;;;;10491830;28;20441;-48
2022/08/23 04:04:48;;;;;;;3.63;2.92;;;23.70;57.80;;;;;;10491647;28;20114;-50
2022/08/23 04:09:49;;;;;;;3.15;2.53;;;23.70;57.70;;;;;;10491927;28;20024;-52
2022/08/23 04:14:50;;;;;;;3.00;2.70;;;23.70;57.80;;;;;;10491296;28;20097;-51
2022/08/23 04:19:50;;;;;;;4.20;3.08;;;23.70;57.80;;;;;;10473122;28;20020;-50
2022/08/23 04:24:51;;;;;;;4.43;3.35;;;23.70;57.80;;;;;;10489566;28;20078;-50
2022/08/23 04:29:52;;;;;;;3.75;2.85;;;23.70;57.80;;;;;;10517139;28;20028;-49
2022/08/23 04:34:53;;;;;;;5.00;3.25;;;23.60;57.70;;;;;;10475259;28;20025;-50
2022/08/23 04:45:13;;;;;;;3.63;2.83;;;23.60;57.80;;;;;;10492138;28;20036;-48
2022/08/23 04:50:14;;;;;;;3.60;3.05;;;23.60;57.80;;;;;;10492353;28;20115;-49
2022/08/23 04:55:15;;;;;;;3.67;3.30;;;23.60;57.80;;;;;;10473829;28;20070;-49
2022/08/23 05:00:16;;;;;;;4.22;3.17;;;23.60;57.90;;;;;;10474296;28;20488;-50
2022/08/23 05:05:17;;;;;;;3.55;2.80;;;23.60;57.90;;;;;;10491525;28;20353;-50
2022/08/23 05:10:18;;;;;;;3.50;2.85;;;23.60;57.90;;;;;;10491495;28;20028;-51
2022/08/23 05:15:18;;;;;;;3.08;2.78;;;23.60;57.90;;;;;;10491136;28;20145;-51
2022/08/23 05:20:19;;;;;;;3.08;2.78;;;23.60;58.00;;;;;;10490917;28;20533;-50
2022/08/23 05:25:21;;;;;;;3.55;3.20;;;23.60;58.00;;;;;;10490661;28;20468;-52
2022/08/23 05:30:21;;;;;;;3.33;3.03;;;23.60;58.00;;;;;;10522974;28;20398;-50
2022/08/23 05:35:22;;;;;;;4.55;3.22;;;23.60;58.00;;;;;;10486177;28;20040;-48
2022/08/23 05:40:22;;;;;;;3.65;3.00;;;23.60;58.00;;;;;;10490521;28;20131;-55
2022/08/23 05:45:23;;;;;;;5.85;3.92;;;23.60;58.10;;;;;;10490375;28;20029;-52
2022/08/23 05:50:24;;;;;;;3.67;3.00;;;23.60;58.10;;;;;;10489636;28;20119;-51
2022/08/23 05:55:25;;;;;;;2.85;2.55;;;23.60;58.20;;;;;;10490010;28;20390;-53
2022/08/23 06:00:27;;;;;;;2.97;2.63;;;23.60;58.30;;;;;;10490025;28;20377;-51
2022/08/23 06:05:27;;;;;;;3.10;2.80;;;23.60;58.20;;;;;;10490164;28;20032;-50
2022/08/23 06:10:28;;;;;;;4.00;2.75;;;23.60;58.20;;;;;;10490100;28;20375;-50
2022/08/23 06:15:30;;;;;;;2.92;2.63;;;23.60;58.20;;;;;;10471500;28;20031;-51
2022/08/23 06:20:30;;;;;;;3.03;2.70;;;23.60;58.20;;;;;;10489891;28;20025;-50
2022/08/23 06:25:37;;;;;;;2.65;2.42;;;23.60;58.20;;;;;;10489375;28;20028;-48
2022/08/23 06:30:38;;;;;;;3.78;3.05;;;23.60;58.20;;;;;;10505125;28;20166;-51
2022/08/23 06:35:40;;;;;;;3.50;2.78;;;23.60;58.20;;;;;;10512810;28;20468;-52
2022/08/23 06:40:41;;;;;;;3.13;2.83;;;23.60;58.30;;;;;;10512606;28;20040;-52
2022/08/23 06:45:42;;;;;;;3.17;2.40;;;23.60;58.30;;;;;;10512812;28;20028;-52
2022/08/23 06:50:43;;;;;;;3.47;2.95;;;23.60;58.30;;;;;;10530896;28;20069;-52
2022/08/23 06:55:44;;;;;;;3.28;2.97;;;23.60;58.30;;;;;;10530442;28;20037;-51
2022/08/23 07:00:45;;;;;;;3.90;3.30;;;23.60;58.30;;;;;;10535875;28;20032;-52
2022/08/23 07:05:45;;;;;;;3.70;2.92;;;23.60;58.40;;;;;;10538554;28;20395;-52
2022/08/23 07:10:46;;;;;;;3.05;2.75;;;23.60;58.40;;;;;;10520065;28;20020;-51
2022/08/23 07:15:47;;;;;;;3.05;2.78;;;23.60;58.40;;;;;;10519682;28;20455;-50
2022/08/23 07:20:48;;;;;;;4.60;3.10;;;23.60;58.50;;;;;;10537535;28;20388;-51
2022/08/23 07:25:48;;;;;;;3.38;3.08;;;23.60;58.50;;;;;;10519485;28;20111;-51
2022/08/23 07:30:49;;;;;;;3.55;3.25;;;23.60;58.50;;;;;;10483104;28;20029;-52
2022/08/23 07:35:52;;;;;;;4.35;3.20;;;23.60;58.50;;;;;;10528156;28;20016;-52
2022/08/23 07:40:53;;;;;;;3.35;3.05;;;23.60;58.50;;;;;;10536541;28;20043;-49
2022/08/23 07:45:54;;;;;;;4.55;4.15;;;23.60;58.60;;;;;;10537118;28;20036;-50
2022/08/23 07:50:58;;;;;;;4.63;4.05;;;23.60;58.80;;;;;;10501660;28;20043;-52
2022/08/23 07:56:05;;;;;;;4.15;3.75;;;23.60;58.80;;;;;;10535961;28;20036;-52
2022/08/23 08:01:23;;;;;;;5.43;4.28;;;23.60;59.00;;;;;;10517967;28;20028;-51
2022/08/23 08:06:29;;;;;;;4.07;3.70;;;23.70;59.10;;;;;;10536253;28;20124;-50
2022/08/23 08:11:32;;;;;;;5.47;4.30;;;23.60;59.00;;;;;;10535212;28;20051;-51
2022/08/23 08:16:38;;;;;;;6.10;4.68;;;23.70;59.10;;;;;;10535739;28;20032;-52
2022/08/23 08:21:40;;;;;;;5.90;4.43;;;23.70;59.10;;;;;;10517443;28;20123;-53
2022/08/23 08:26:42;;;;;;;4.07;3.40;;;23.70;59.10;;;;;;10533577;28;20016;-49
2022/08/23 08:31:45;;;;;;;3.58;3.28;;;23.70;59.10;;;;;;10492462;28;20067;-51
2022/08/23 08:36:52;;;;;;;4.03;3.22;;;23.70;59.10;;;;;;10532534;28;20071;-53
2022/08/23 08:42:11;;;;;;;4.25;3.58;;;23.80;59.10;;;;;;10534010;28;20040;-53
2022/08/23 08:47:36;;;;;;;6.32;3.70;;;23.70;59.10;;;;;;10515742;28;20200;-51
2022/08/23 08:52:47;;;;;;;4.28;3.20;;;23.80;59.20;;;;;;10533888;28;20032;-51
2022/08/23 08:57:49;;;;;;;4.60;4.05;;;23.80;59.20;;;;;;10516207;28;20032;-52
2022/08/23 09:02:50;;;;;;;5.22;3.40;;;23.80;59.20;;;;;;10515052;28;20033;-52
2022/08/23 09:08:09;;;;;;;3.35;2.88;;;23.80;59.20;;;;;;10533153;28;20035;-51
2022/08/23 09:14:01;;;;;;;5.03;4.30;;;23.80;59.20;;;;;;10533289;28;20651;-52
2022/08/23 09:19:03;;;;;;;4.95;3.72;;;23.80;59.20;;;;;;10517728;28;20038;-52
2022/08/23 09:24:04;;;;;;;5.07;3.67;;;23.80;59.20;;;;;;10513454;28;20379;-52
2022/08/23 09:29:19;;;;;;;3.83;3.53;;;23.80;59.20;;;;;;10510870;28;20041;-50
2022/08/23 09:34:40;;;;;;;3.65;3.35;;;23.90;59.20;;;;;;10510120;28;20065;-52
2022/08/23 09:39:50;;;;;;;3.75;3.20;;;23.90;59.20;;;;;;10531867;28;20437;-51
2022/08/23 09:44:50;;;;;;;4.28;3.10;;;23.90;59.20;;;;;;10532136;28;20039;-53
2022/08/23 09:49:51;;;;;;;3.65;3.30;;;23.90;58.80;;;;;;10514040;28;20020;-51
2022/08/23 09:55:01;;;;;;;4.68;3.00;;;23.90;59.00;;;;;;10513781;28;20028;-49
2022/08/23 10:00:23;;;;;;;3.65;2.35;;;24.00;59.00;;;;;;10514161;28;20024;-53
2022/08/23 10:05:38;;;;;;;2.88;2.58;;;24.00;59.10;;;;;;10531354;28;20038;-51
2022/08/23 10:10:52;;;;;;;3.88;2.83;;;24.00;59.10;;;;;;10497288;28;20084;-52
2022/08/23 10:16:30;;;;;;;3.50;3.20;;;24.10;58.80;;;;;;10531387;28;20028;-53
2022/08/23 10:21:44;;;;;;;3.38;2.83;;;24.00;58.90;;;;;;10531031;28;20024;-53
2022/08/23 10:32:51;;;;;;;3.80;2.70;;;24.10;58.60;;;;;;10479538;28;20031;-53
2022/08/23 10:38:11;;;;;;;3.47;2.55;;;24.10;58.80;;;;;;10520601;28;20056;-52
2022/08/23 10:43:38;;;;;;;4.65;3.22;;;24.10;58.90;;;;;;10522349;28;20059;-53
2022/08/23 10:48:59;;;;;;;3.33;2.78;;;24.20;58.70;;;;;;10522688;28;20459;-52
2022/08/23 10:54:17;;;;;;;3.15;2.85;;;24.20;58.80;;;;;;10520943;28;20032;-53
2022/08/23 10:59:24;;;;;;;3.83;3.42;;;24.20;58.80;;;;;;10520634;28;20031;-52
2022/08/23 11:04:58;;;;;;;3.60;2.78;;;24.20;58.70;;;;;;10520048;28;20021;-52
2022/08/23 11:10:07;;;;;;;3.08;2.67;;;24.30;58.80;;;;;;10505186;28;20032;-53
2022/08/23 11:15:31;;;;;;;3.13;2.78;;;24.30;59.00;;;;;;10538001;28;20106;-53
2022/08/23 11:20:59;;;;;;;3.45;3.15;;;24.30;58.80;;;;;;10501989;28;20040;-52
2022/08/23 11:26:00;;;;;;;3.35;3.05;;;24.30;58.80;;;;;;10513685;28;20052;-53
2022/08/23 11:31:09;;;;;;;5.10;3.15;;;24.40;58.80;;;;;;10481690;28;20069;-52
2022/08/23 11:36:23;;;;;;;3.25;2.88;;;24.40;58.80;;;;;;10530088;28;20360;-52
2022/08/23 11:41:30;;;;;;;5.80;2.67;;;24.40;58.80;;;;;;10536898;28;20119;-52
2022/08/23 11:46:34;;;;;;;4.40;2.80;;;24.40;58.90;;;;;;10535821;28;20024;-53
2022/08/23 11:52:04;;;;;;;3.03;2.65;;;24.40;59.00;;;;;;10518902;28;20063;-53
2022/08/23 11:57:50;;;;;;;3.22;2.70;;;24.40;58.90;;;;;;10536273;28;20036;-51
2022/08/23 12:03:18;;;;;;;3.05;2.22;;;24.40;59.10;;;;;;10536190;28;20110;-52
2022/08/23 12:08:19;;;;;;;3.03;2.70;;;24.40;59.10;;;;;;10519462;28;20020;-52
2022/08/23 12:13:20;;;;;;;2.97;2.38;;;24.40;59.00;;;;;;10535701;28;20457;-52
2022/08/23 12:18:21;;;;;;;4.30;3.05;;;24.40;59.20;;;;;;10535450;28;20111;-52
2022/08/23 12:23:22;;;;;;;3.55;3.25;;;24.40;59.10;;;;;;10517095;28;20039;-52
2022/08/23 12:28:51;;;;;;;2.80;2.33;;;24.40;59.20;;;;;;10519805;28;20419;-53
2022/08/23 12:34:38;;;;;;;3.75;2.65;;;24.40;59.00;;;;;;10492422;28;20173;-53
2022/08/23 12:40:01;;;;;;;3.22;2.92;;;24.40;58.90;;;;;;10523452;28;20044;-52
2022/08/23 12:45:14;;;;;;;3.65;2.78;;;24.40;59.10;;;;;;10516583;28;20505;-52
2022/08/23 12:50:34;;;;;;;3.00;2.70;;;24.40;59.50;;;;;;10534314;28;20127;-53
2022/08/23 12:55:41;;;;;;;4.10;2.65;;;24.30;59.30;;;;;;10534520;28;20529;-53
2022/08/23 13:00:51;;;;;;;3.47;2.33;;;24.40;59.50;;;;;;10515755;28;20509;-52
2022/08/23 13:05:59;;;;;;;3.97;2.38;;;24.30;60.10;;;;;;10515922;28;20036;-51
2022/08/23 13:11:00;;;;;;;3.22;2.40;;;24.40;59.50;;;;;;10515641;28;20348;-52
2022/08/23 13:16:41;;;;;;;4.28;2.70;;;24.40;59.50;;;;;;10515175;28;20028;-53
2022/08/23 13:21:42;;;;;;;2.85;2.55;;;24.30;59.40;;;;;;10533271;28;20086;-53
2022/08/23 13:26:45;;;;;;;3.72;2.53;;;24.30;59.30;;;;;;10496436;28;20434;-52
2022/08/23 13:32:00;;;;;;;3.30;2.60;;;24.40;59.30;;;;;;10490269;28;20043;-49
2022/08/23 13:37:22;;;;;;;2.50;2.30;;;24.40;59.40;;;;;;10472496;28;20361;-53
2022/08/23 13:42:37;;;;;;;2.85;2.50;;;24.50;59.40;;;;;;10474639;28;20055;-49
2022/08/23 13:47:44;;;;;;;3.65;2.75;;;24.40;59.10;;;;;;10472400;28;20795;-52
2022/08/23 13:52:45;;;;;;;3.40;2.83;;;24.50;59.30;;;;;;10473693;28;20048;-52
2022/08/23 13:57:45;;;;;;;3.70;2.78;;;24.50;59.10;;;;;;10489991;28;20103;-50
2022/08/23 14:02:47;;;;;;;2.97;2.50;;;24.50;59.10;;;;;;10471631;28;20037;-52
2022/08/23 14:07:51;;;;;;;2.92;2.45;;;24.50;59.00;;;;;;10491595;28;20060;-53
2022/08/23 14:12:54;;;;;;;3.10;2.15;;;24.40;59.00;;;;;;10503156;28;20036;-53
2022/08/23 14:17:56;;;;;;;2.53;2.33;;;24.50;59.10;;;;;;10485899;28;20063;-51
2022/08/23 14:22:57;;;;;;;2.88;2.25;;;24.40;59.10;;;;;;10485993;28;20054;-53
2022/08/23 14:27:58;;;;;;;3.22;2.33;;;24.50;59.00;;;;;;10515330;28;20556;-51
2022/08/23 14:33:00;;;;;;;2.47;2.05;;;24.40;59.20;;;;;;10518169;28;20166;-50
2022/08/23 14:38:01;;;;;;;2.78;2.20;;;24.40;59.30;;;;;;10503866;28;20096;-53
2022/08/23 14:43:04;;;;;;;3.78;2.28;;;24.50;59.00;;;;;;10502450;28;20048;-53
2022/08/23 14:48:05;;;;;;;2.22;2.03;;;24.40;58.70;;;;;;10485318;28;20013;-53
2022/08/23 14:53:06;;;;;;;2.70;2.08;;;24.40;59.00;;;;;;10502977;28;20428;-52
2022/08/23 14:58:07;;;;;;;2.60;2.28;;;24.50;58.90;;;;;;10484538;28;20056;-51
2022/08/23 15:03:12;;;;;;;3.00;2.05;;;24.40;59.10;;;;;;10484701;28;20060;-52
2022/08/23 15:08:13;;;;;;;2.30;1.95;;;24.50;59.00;;;;;;10485267;28;20476;-51
2022/08/23 15:13:13;;;;;;;2.55;2.20;;;24.50;59.10;;;;;;10502129;28;20032;-52
2022/08/23 15:18:15;;;;;;;2.67;2.00;;;24.40;59.10;;;;;;10484390;28;20028;-51
2022/08/23 15:23:16;;;;;;;2.20;2.00;;;24.40;59.20;;;;;;10478198;28;20044;-49
2022/08/23 15:28:20;;;;;;;2.67;1.70;;;24.40;59.20;;;;;;10491829;28;20463;-51
2022/08/23 15:33:21;;;;;;;3.08;2.42;;;24.40;59.00;;;;;;10525832;28;20033;-52
2022/08/23 15:38:24;;;;;;;2.67;2.35;;;24.40;59.00;;;;;;10494861;28;20036;-53
2022/08/23 15:43:25;;;;;;;3.42;2.38;;;24.40;58.90;;;;;;10476349;28;20146;-54
2022/08/23 15:48:31;;;;;;;2.67;2.13;;;24.40;59.10;;;;;;10494872;28;20025;-51
2022/08/23 15:53:32;;;;;;;2.22;2.00;;;24.40;59.10;;;;;;10476760;28;20032;-50
2022/08/23 15:58:35;;;;;;;3.42;2.20;;;24.40;58.90;;;;;;10459581;28;20033;-50
2022/08/23 16:03:40;;;;;;;2.00;1.73;;;24.40;58.90;;;;;;10494538;28;20116;-49
2022/08/23 16:08:45;;;;;;;3.13;2.13;;;24.50;59.00;;;;;;10476470;28;20029;-51
2022/08/23 16:13:47;;;;;;;2.20;2.00;;;24.50;58.80;;;;;;10476121;28;20025;-51
2022/08/23 16:18:49;;;;;;;2.20;1.90;;;24.40;59.00;;;;;;10493874;28;20103;-50
2022/08/23 16:23:50;;;;;;;3.25;2.13;;;24.50;59.10;;;;;;10493771;28;20138;-52
2022/08/23 16:28:54;;;;;;;2.45;2.03;;;24.50;59.10;;;;;;10513127;28;20150;-52
2022/08/23 16:33:56;;;;;;;3.00;2.70;;;24.50;59.10;;;;;;10518310;28;20043;-52
2022/08/23 16:38:57;;;;;;;1.90;1.70;;;24.50;59.20;;;;;;10492100;28;20037;-51
2022/08/23 16:43:57;;;;;;;2.97;1.88;;;24.50;59.10;;;;;;10474421;28;20043;-52
2022/08/23 16:48:58;;;;;;;2.13;1.92;;;24.50;59.10;;;;;;10458110;28;20021;-51
2022/08/23 16:53:59;;;;;;;3.45;2.35;;;24.50;59.10;;;;;;10492515;28;20036;-51
2022/08/23 16:59:03;;;;;;;2.85;2.20;;;24.50;58.90;;;;;;10474350;28;20082;-50
2022/08/23 17:04:04;;;;;;;2.67;1.95;;;24.50;59.00;;;;;;10473510;28;20120;-52
2022/08/23 17:09:05;;;;;;;2.00;1.73;;;24.50;59.00;;;;;;10492080;28;20044;-51
2022/08/23 17:14:06;;;;;;;2.00;1.60;;;24.50;59.10;;;;;;10492096;28;20032;-51
2022/08/23 17:19:07;;;;;;;2.25;1.77;;;24.50;59.00;;;;;;10491427;28;20523;-51
2022/08/23 17:24:08;;;;;;;1.88;1.60;;;24.50;59.10;;;;;;10491129;28;20472;-52
2022/08/23 17:29:11;;;;;;;2.70;2.25;;;24.50;59.00;;;;;;10512339;28;20073;-51
2022/08/23 17:34:11;;;;;;;2.15;1.67;;;24.50;59.00;;;;;;10514159;28;20032;-50
2022/08/23 17:39:17;;;;;;;2.17;1.70;;;24.50;59.00;;;;;;10490507;28;20426;-50
2022/08/23 17:44:19;;;;;;;2.60;1.88;;;24.50;59.00;;;;;;10488167;28;20487;-51
2022/08/23 17:49:19;;;;;;;2.15;1.70;;;24.50;59.00;;;;;;10490156;28;20108;-51
2022/08/23 17:54:20;;;;;;;2.10;1.63;;;24.50;59.10;;;;;;10489917;28;20482;-52
2022/08/23 17:59:21;;;;;;;2.92;1.92;;;24.50;59.10;;;;;;10490604;28;20845;-51
2022/08/23 18:04:22;;;;;;;2.28;1.90;;;24.60;59.10;;;;;;10489725;28;20037;-52
2022/08/23 18:09:22;;;;;;;1.92;1.63;;;24.50;59.10;;;;;;10490585;28;20192;-49
2022/08/23 18:14:26;;;;;;;3.20;2.03;;;24.50;59.10;;;;;;10472525;28;20029;-52
2022/08/23 18:19:27;;;;;;;2.20;2.00;;;24.50;59.10;;;;;;10455274;28;20029;-50
2022/08/23 18:24:28;;;;;;;2.15;1.77;;;24.60;59.10;;;;;;10471243;28;20021;-51
2022/08/23 18:29:33;;;;;;;2.00;1.80;;;24.60;59.10;;;;;;10513869;28;20364;-49
2022/08/23 18:34:35;;;;;;;3.33;1.95;;;24.50;59.00;;;;;;10509372;28;20033;-54
2022/08/23 18:39:36;;;;;;;2.58;1.85;;;24.60;59.10;;;;;;10489064;28;20053;-52
2022/08/23 18:44:37;;;;;;;2.28;1.70;;;24.60;59.10;;;;;;10489217;28;20656;-50
2022/08/23 18:49:37;;;;;;;2.53;2.03;;;24.60;59.10;;;;;;10488871;28;20162;-51
2022/08/23 18:54:38;;;;;;;2.03;1.83;;;24.60;59.10;;;;;;10490282;28;20111;-52
2022/08/23 18:59:39;;;;;;;2.30;1.73;;;24.60;59.10;;;;;;10496456;28;20032;-49
2022/08/23 19:04:40;;;;;;;1.95;1.75;;;24.60;59.10;;;;;;10496213;28;20074;-50
2022/08/23 19:09:41;;;;;;;2.63;1.90;;;24.60;59.10;;;;;;10478213;28;20028;-50
2022/08/23 19:14:41;;;;;;;3.28;2.05;;;24.60;59.10;;;;;;10496754;28;20525;-51
2022/08/23 19:19:42;;;;;;;2.90;1.90;;;24.60;59.10;;;;;;10496031;28;20792;-51
2022/08/23 19:24:43;;;;;;;1.75;1.60;;;24.60;59.10;;;;;;10493740;28;20044;-51
2022/08/23 19:29:44;;;;;;;1.80;1.70;;;24.60;59.10;;;;;;10502621;28;20101;-50
2022/08/23 19:34:44;;;;;;;2.30;1.67;;;24.60;59.10;;;;;;10493249;28;20047;-50
2022/08/23 19:39:45;;;;;;;2.35;1.55;;;24.60;59.20;;;;;;10492993;28;20048;-49
2022/08/23 19:44:46;;;;;;;2.75;2.55;;;24.60;59.20;;;;;;10492727;28;20036;-52
2022/08/23 19:49:47;;;;;;;2.13;1.60;;;24.60;59.30;;;;;;10493143;28;20052;-51
2022/08/23 19:54:48;;;;;;;1.75;1.65;;;24.60;59.30;;;;;;10474492;28;20052;-49
2022/08/23 19:59:49;;;;;;;2.20;1.58;;;24.60;59.40;;;;;;10474349;28;20398;-50
2022/08/23 20:04:51;;;;;;;2.60;2.17;;;24.60;59.40;;;;;;10491795;28;20036;-51
2022/08/23 20:09:52;;;;;;;2.08;1.65;;;24.60;59.50;;;;;;10491016;28;20025;-50
2022/08/23 20:14:53;;;;;;;2.58;1.80;;;24.60;59.50;;;;;;10491655;28;20547;-50
2022/08/23 20:19:54;;;;;;;2.25;2.03;;;24.60;59.50;;;;;;10491370;28;20032;-51
2022/08/23 20:24:55;;;;;;;2.38;2.10;;;24.60;59.60;;;;;;10491368;28;20040;-51
2022/08/23 20:29:57;;;;;;;2.40;1.70;;;24.60;59.60;;;;;;10519862;28;20103;-51
2022/08/23 20:34:59;;;;;;;2.08;1.88;;;24.70;59.70;;;;;;10508070;28;20082;-50
2022/08/23 20:40:01;;;;;;;2.70;1.90;;;24.70;59.70;;;;;;10472764;28;20503;-48
2022/08/23 20:45:04;;;;;;;1.95;1.52;;;24.70;59.70;;;;;;10490692;28;20033;-51
2022/08/23 20:50:06;;;;;;;2.53;2.20;;;24.60;59.60;;;;;;10490416;28;20032;-49
2022/08/23 20:55:07;;;;;;;4.00;2.40;;;24.60;59.60;;;;;;10490662;28;20632;-49
2022/08/23 21:00:09;;;;;;;2.97;2.65;;;24.60;59.70;;;;;;10489969;28;20391;-50
2022/08/23 21:05:09;;;;;;;2.30;2.10;;;24.70;59.80;;;;;;10471518;28;20021;-48
2022/08/23 21:10:10;;;;;;;2.83;2.53;;;24.60;59.80;;;;;;10489515;28;20108;-49
2022/08/23 21:15:11;;;;;;;2.13;1.90;;;24.60;59.80;;;;;;10489393;28;20033;-50
2022/08/23 21:20:12;;;;;;;2.83;1.95;;;24.60;59.80;;;;;;10489022;28;20431;-51
2022/08/23 21:25:14;;;;;;;3.03;2.38;;;24.70;60.00;;;;;;10488964;28;20036;-50
2022/08/23 21:30:15;;;;;;;3.03;2.13;;;24.60;59.80;;;;;;10502196;28;20028;-50
2022/08/23 21:35:16;;;;;;;2.75;2.38;;;24.70;60.00;;;;;;10485509;28;20400;-49
2022/08/23 21:40:16;;;;;;;2.17;1.95;;;24.60;60.00;;;;;;10488275;28;20055;-51
2022/08/23 21:45:17;;;;;;;3.58;2.22;;;24.60;60.00;;;;;;10488642;28;20472;-52
2022/08/23 21:50:18;;;;;;;4.00;2.60;;;24.60;60.10;;;;;;10488345;28;20032;-51
2022/08/23 21:55:19;;;;;;;3.67;2.55;;;24.70;60.00;;;;;;10469958;28;20052;-51
2022/08/23 22:00:20;;;;;;;2.60;2.10;;;24.60;60.10;;;;;;10469870;28;20036;-51
2022/08/23 22:05:20;;;;;;;3.15;2.72;;;24.70;60.20;;;;;;10469541;28;20025;-51
2022/08/23 22:10:22;;;;;;;2.28;2.08;;;24.60;60.20;;;;;;10487659;28;20039;-50
2022/08/23 22:15:23;;;;;;;2.83;2.38;;;24.70;60.30;;;;;;10487807;28;20032;-51
2022/08/23 22:20:24;;;;;;;2.72;2.22;;;24.70;60.30;;;;;;10488133;28;20117;-51
2022/08/23 22:25:26;;;;;;;3.03;2.60;;;24.70;60.30;;;;;;10487523;28;20077;-50
2022/08/23 22:30:26;;;;;;;2.83;2.42;;;24.70;60.40;;;;;;10523327;28;20606;-51
2022/08/23 22:35:27;;;;;;;3.35;2.42;;;24.60;60.40;;;;;;10509250;28;20035;-51
2022/08/23 22:40:28;;;;;;;3.00;2.40;;;24.60;60.50;;;;;;10477685;28;20044;-50
2022/08/23 22:45:28;;;;;;;3.17;2.33;;;24.60;60.50;;;;;;10495473;28;20055;-52
2022/08/23 22:50:29;;;;;;;3.60;2.63;;;24.60;60.50;;;;;;10495400;28;20090;-49
2022/08/23 22:55:30;;;;;;;3.33;2.63;;;24.60;60.60;;;;;;10495622;28;20111;-51
2022/08/23 23:00:30;;;;;;;3.05;2.58;;;24.60;60.60;;;;;;10495446;28;20099;-51
2022/08/23 23:05:32;;;;;;;3.08;2.30;;;24.60;60.60;;;;;;10494594;28;20029;-50
2022/08/23 23:10:33;;;;;;;3.25;2.45;;;24.60;60.60;;;;;;10494516;28;20043;-51
2022/08/23 23:15:34;;;;;;;4.28;2.90;;;24.60;60.60;;;;;;10494073;28;20571;-50
2022/08/23 23:20:36;;;;;;;5.53;2.80;;;24.60;60.70;;;;;;10494772;28;20032;-52
2022/08/23 23:25:37;;;;;;;3.03;2.50;;;24.60;60.60;;;;;;10475931;28;20032;-51
2022/08/23 23:30:39;;;;;;;3.53;2.80;;;24.60;60.70;;;;;;10527567;28;20114;-49
2022/08/23 23:35:40;;;;;;;3.75;2.90;;;24.60;60.70;;;;;;10486664;28;20025;-50
2022/08/23 23:40:42;;;;;;;3.65;2.92;;;24.60;60.70;;;;;;10491550;28;20053;-51
2022/08/23 23:45:43;;;;;;;3.90;3.45;;;24.60;60.70;;;;;;10492671;28;20469;-52
2022/08/23 23:50:43;;;;;;;3.90;2.80;;;24.60;60.70;;;;;;10474697;28;20028;-51
2022/08/23 23:55:46;;;;;;;3.72;3.33;;;24.60;60.70;;;;;;10474685;28;20451;-51
